createdAt,value
2023-03-14T00:00:21.953Z,6.60
2023-03-14T00:01:21.949Z,5.90
2023-03-14T00:02:21.954Z,6.50
2023-03-14T00:03:21.947Z,5.50
2023-03-14T00:04:21.907Z,12.80
2023-03-14T00:05:21.890Z,15.90
2023-03-14T00:06:21.880Z,5.50
2023-03-14T00:07:21.869Z,8.80
2023-03-14T00:08:21.880Z,7.50
2023-03-14T00:09:21.856Z,8.00
2023-03-14T00:10:21.891Z,10.90
2023-03-14T00:11:21.838Z,9.30
2023-03-14T00:12:21.829Z,10.00
2023-03-14T00:13:21.828Z,6.50
2023-03-14T00:14:21.803Z,5.50
2023-03-14T00:15:21.799Z,7.10
2023-03-14T00:16:21.889Z,4.40
2023-03-14T00:17:21.763Z,4.70
2023-03-14T00:18:21.780Z,9.30
2023-03-14T00:19:21.747Z,9.70
2023-03-14T00:20:21.735Z,8.80
2023-03-14T00:21:21.734Z,12.70
2023-03-14T00:22:21.716Z,9.30
2023-03-14T00:23:21.751Z,12.50
2023-03-14T00:24:21.714Z,5.90
2023-03-14T00:25:21.685Z,6.50
2023-03-14T00:26:21.691Z,9.20
2023-03-14T00:27:21.658Z,10.10
2023-03-14T00:28:21.668Z,7.50
2023-03-14T00:29:21.641Z,6.60
2023-03-14T00:30:21.628Z,8.10
2023-03-14T00:31:21.662Z,3.20
2023-03-14T00:32:21.626Z,5.20
2023-03-14T00:33:21.609Z,4.70
2023-03-14T00:34:21.606Z,7.90
2023-03-14T00:35:21.582Z,5.30
2023-03-14T00:36:21.567Z,4.90
2023-03-14T00:37:21.549Z,6.10
2023-03-14T00:38:21.579Z,5.60
2023-03-14T00:39:21.530Z,4.00
2023-03-14T00:40:21.529Z,5.30
2023-03-14T00:41:21.515Z,10.50
2023-03-14T00:42:21.511Z,3.90
2023-03-14T00:43:21.508Z,6.30
2023-03-14T00:44:21.498Z,5.60
2023-03-14T00:45:21.475Z,3.60
2023-03-14T00:46:21.533Z,6.50
2023-03-14T00:47:21.444Z,6.10
2023-03-14T00:48:21.474Z,7.90
2023-03-14T00:49:21.422Z,7.70
2023-03-14T00:50:21.421Z,6.60
2023-03-14T00:51:21.402Z,3.30
2023-03-14T00:52:21.393Z,4.50
2023-03-14T00:53:21.404Z,6.20
2023-03-14T00:54:21.372Z,3.70
2023-03-14T00:55:21.362Z,6.60
2023-03-14T00:56:21.353Z,6.20
2023-03-14T00:57:21.352Z,5.30
2023-03-14T00:58:21.364Z,5.10
2023-03-14T00:59:21.317Z,4.20
2023-03-14T01:00:21.317Z,3.30
2023-03-14T01:01:21.304Z,4.70
2023-03-14T01:02:21.287Z,5.00
2023-03-14T01:03:21.296Z,4.20
2023-03-14T01:04:21.280Z,4.80
2023-03-14T01:05:21.257Z,4.20
2023-03-14T01:06:21.253Z,3.00
2023-03-14T01:07:21.243Z,3.70
2023-03-14T01:08:21.249Z,5.60
2023-03-14T01:09:21.215Z,6.60
2023-03-14T01:10:21.214Z,3.60
2023-03-14T01:11:21.203Z,4.60
2023-03-14T01:12:21.193Z,4.50
2023-03-14T01:13:21.174Z,3.00
2023-03-14T01:14:21.186Z,6.30
2023-03-14T01:15:21.163Z,6.40
2023-03-14T01:16:21.180Z,5.40
2023-03-14T01:17:21.136Z,8.00
2023-03-14T01:18:21.127Z,3.50
2023-03-14T01:19:21.128Z,4.20
2023-03-14T01:20:21.109Z,7.30
2023-03-14T01:21:21.090Z,7.90
2023-03-14T01:22:21.089Z,5.80
2023-03-14T01:23:21.069Z,4.40
2023-03-14T01:24:21.081Z,7.20
2023-03-14T01:25:21.062Z,5.30
2023-03-14T01:26:21.043Z,4.50
2023-03-14T01:27:21.042Z,4.30
2023-03-14T01:28:21.024Z,5.60
2023-03-14T01:29:21.033Z,5.20
2023-03-14T01:30:21.003Z,5.30
2023-03-14T01:31:21.026Z,5.40
2023-03-14T01:32:21.013Z,5.20
2023-03-14T01:33:20.974Z,6.30
2023-03-14T01:34:20.997Z,5.40
2023-03-14T01:35:20.945Z,6.60
2023-03-14T01:36:20.953Z,7.80
2023-03-14T01:37:20.926Z,6.90
2023-03-14T01:38:20.917Z,4.30
2023-03-14T01:39:21.049Z,7.40
2023-03-14T01:40:20.901Z,4.60
2023-03-14T01:41:20.879Z,5.80
2023-03-14T01:42:20.885Z,8.80
2023-03-14T01:43:20.868Z,7.40
2023-03-14T01:44:20.887Z,5.60
2023-03-14T01:45:20.838Z,6.70
2023-03-14T01:46:20.836Z,8.80
2023-03-14T01:47:20.819Z,9.30
2023-03-14T01:48:20.810Z,6.00
2023-03-14T01:49:20.824Z,8.90
2023-03-14T01:50:20.793Z,6.50
2023-03-14T01:51:20.781Z,8.90
2023-03-14T01:52:20.775Z,6.00
2023-03-14T01:53:20.764Z,7.90
2023-03-14T01:54:20.768Z,10.30
2023-03-14T01:55:20.737Z,5.30
2023-03-14T01:56:20.740Z,7.00
2023-03-14T01:57:20.712Z,8.20
2023-03-14T01:58:20.706Z,8.50
2023-03-14T01:59:20.715Z,6.50
2023-03-14T02:00:20.693Z,7.90
2023-03-14T02:01:20.747Z,8.90
2023-03-14T02:02:20.668Z,6.90
2023-03-14T02:03:20.654Z,7.50
2023-03-14T02:04:20.659Z,7.60
2023-03-14T02:05:20.643Z,8.60
2023-03-14T02:06:20.620Z,9.50
2023-03-14T02:07:20.609Z,7.70
2023-03-14T02:08:20.601Z,7.00
2023-03-14T02:09:20.609Z,9.90
2023-03-14T02:10:20.579Z,9.10
2023-03-14T02:11:20.582Z,7.90
2023-03-14T02:12:20.561Z,6.60
2023-03-14T02:13:20.567Z,10.60
2023-03-14T02:14:20.547Z,9.10
2023-03-14T02:15:20.530Z,9.90
2023-03-14T02:16:20.528Z,8.80
2023-03-14T02:17:20.498Z,7.40
2023-03-14T02:18:20.487Z,12.00
2023-03-14T02:19:20.497Z,8.30
2023-03-14T02:20:20.479Z,7.70
2023-03-14T02:21:20.466Z,10.80
2023-03-14T02:22:21.160Z,7.30
2023-03-14T02:23:20.431Z,5.90
2023-03-14T02:24:20.449Z,8.30
2023-03-14T02:25:20.414Z,9.80
2023-03-14T02:26:20.406Z,8.40
2023-03-14T02:27:20.390Z,9.50
2023-03-14T02:28:20.377Z,10.60
2023-03-14T02:29:20.385Z,9.60
2023-03-14T02:30:20.367Z,11.80
2023-03-14T02:31:20.374Z,12.70
2023-03-14T02:32:20.375Z,9.60
2023-03-14T02:33:20.359Z,10.50
2023-03-14T02:34:20.345Z,13.10
2023-03-14T02:35:20.305Z,11.20
2023-03-14T02:36:20.303Z,11.60
2023-03-14T02:37:20.279Z,9.50
2023-03-14T02:38:20.279Z,11.20
2023-03-14T02:39:20.281Z,9.20
2023-03-14T02:40:20.254Z,9.50
2023-03-14T02:41:20.241Z,10.90
2023-03-14T02:42:20.238Z,12.20
2023-03-14T02:43:20.212Z,12.10
2023-03-14T02:44:20.227Z,9.90
2023-03-14T02:45:20.200Z,13.20
2023-03-14T02:46:20.248Z,10.20
2023-03-14T02:47:20.172Z,13.20
2023-03-14T02:48:20.190Z,11.60
2023-03-14T02:49:20.169Z,19.20
2023-03-14T02:50:20.145Z,12.20
2023-03-14T02:51:20.138Z,16.00
2023-03-14T02:52:20.127Z,11.90
2023-03-14T02:53:20.114Z,14.90
2023-03-14T02:54:20.124Z,13.10
2023-03-14T02:55:20.081Z,11.20
2023-03-14T02:56:20.094Z,10.70
2023-03-14T02:57:20.073Z,12.40
2023-03-14T02:58:20.066Z,18.80
2023-03-14T02:59:20.066Z,12.40
2023-03-14T03:00:20.045Z,18.30
2023-03-14T03:01:20.053Z,14.50
2023-03-14T03:02:20.018Z,16.70
2023-03-14T03:03:20.055Z,12.10
2023-03-14T03:04:20.017Z,16.90
2023-03-14T03:05:19.988Z,12.30
2023-03-14T03:06:19.978Z,15.50
2023-03-14T03:07:19.980Z,16.20
2023-03-14T03:08:19.957Z,13.80
2023-03-14T03:09:19.958Z,18.70
2023-03-14T03:10:19.938Z,15.20
2023-03-14T03:11:19.922Z,11.10
2023-03-14T03:12:19.929Z,14.00
2023-03-14T03:13:19.906Z,13.90
2023-03-14T03:14:19.947Z,12.10
2023-03-14T03:15:19.882Z,18.60
2023-03-14T03:16:19.901Z,14.90
2023-03-14T03:17:19.874Z,16.40
2023-03-14T03:18:19.851Z,15.40
2023-03-14T03:19:19.860Z,15.80
2023-03-14T03:20:19.843Z,14.40
2023-03-14T03:21:19.814Z,14.30
2023-03-14T03:22:19.806Z,16.70
2023-03-14T03:23:19.802Z,15.20
2023-03-14T03:24:19.809Z,16.70
2023-03-14T03:25:19.776Z,14.90
2023-03-14T03:26:19.770Z,17.00
2023-03-14T03:27:19.762Z,17.80
2023-03-14T03:28:19.755Z,15.90
2023-03-14T03:29:19.760Z,16.00
2023-03-14T03:30:19.726Z,14.30
2023-03-14T03:31:19.784Z,15.50
2023-03-14T03:32:19.749Z,13.50
2023-03-14T03:33:19.693Z,13.30
2023-03-14T03:34:19.806Z,17.20
2023-03-14T03:35:19.686Z,15.10
2023-03-14T03:36:19.667Z,16.60
2023-03-14T03:37:19.677Z,15.10
2023-03-14T03:38:19.640Z,13.30
2023-03-14T03:39:19.652Z,15.60
2023-03-14T03:40:19.643Z,14.20
2023-03-14T03:41:19.646Z,11.60
2023-03-14T03:42:19.608Z,12.90
2023-03-14T03:43:19.592Z,10.30
2023-03-14T03:44:19.598Z,10.50
2023-03-14T03:45:19.601Z,9.30
2023-03-14T03:46:19.623Z,10.80
2023-03-14T03:47:19.555Z,13.20
2023-03-14T03:48:19.562Z,13.10
2023-03-14T03:49:19.546Z,15.00
2023-03-14T03:50:19.524Z,13.80
2023-03-14T03:51:19.532Z,10.60
2023-03-14T03:52:19.525Z,12.70
2023-03-14T03:53:32.413Z,18.30
2023-03-14T03:54:20.494Z,11.90
2023-03-14T03:55:19.464Z,11.70
2023-03-14T03:56:19.577Z,13.00
2023-03-14T03:57:19.444Z,12.60
2023-03-14T03:58:19.438Z,13.10
2023-03-14T03:59:19.442Z,12.50
2023-03-14T04:00:19.456Z,11.30
2023-03-14T04:01:19.410Z,12.00
2023-03-14T04:02:19.441Z,8.90
2023-03-14T04:03:19.376Z,8.90
2023-03-14T04:04:19.398Z,15.20
2023-03-14T04:05:19.375Z,15.70
2023-03-14T04:06:19.361Z,12.40
2023-03-14T04:07:19.340Z,14.40
2023-03-14T04:08:19.329Z,15.50
2023-03-14T04:09:19.339Z,14.50
2023-03-14T04:10:19.311Z,14.60
2023-03-14T04:11:19.293Z,14.40
2023-03-14T04:12:19.292Z,10.80
2023-03-14T04:13:19.274Z,15.90
2023-03-14T04:14:19.281Z,18.20
2023-03-14T04:15:19.253Z,14.30
2023-03-14T04:16:19.282Z,14.60
2023-03-14T04:17:20.175Z,14.30
2023-03-14T04:18:19.227Z,17.20
2023-03-14T04:19:19.238Z,19.10
2023-03-14T04:20:19.204Z,14.10
2023-03-14T04:21:19.198Z,12.10
2023-03-14T04:22:19.181Z,16.60
2023-03-14T04:23:19.165Z,16.10
2023-03-14T04:24:19.177Z,15.80
2023-03-14T04:25:19.204Z,14.60
2023-03-14T04:26:19.142Z,16.00
2023-03-14T04:27:19.124Z,12.20
2023-03-14T04:28:19.123Z,11.20
2023-03-14T04:29:19.121Z,16.60
2023-03-14T04:30:19.105Z,15.40
2023-03-14T04:31:19.094Z,12.20
2023-03-14T04:32:19.146Z,13.20
2023-03-14T04:33:19.077Z,14.30
2023-03-14T04:34:19.052Z,18.20
2023-03-14T04:35:19.056Z,17.60
2023-03-14T04:36:19.029Z,13.50
2023-03-14T04:37:19.028Z,16.60
2023-03-14T04:38:19.028Z,15.50
2023-03-14T04:39:18.997Z,14.00
2023-03-14T04:40:19.105Z,14.40
2023-03-14T04:41:18.988Z,12.80
2023-03-14T04:42:18.971Z,17.40
2023-03-14T04:43:18.971Z,19.80
2023-03-14T04:44:18.958Z,26.20
2023-03-14T04:45:18.954Z,12.50
2023-03-14T04:46:18.993Z,15.50
2023-03-14T04:47:18.938Z,14.60
2023-03-14T04:48:18.924Z,14.40
2023-03-14T04:49:18.891Z,13.20
2023-03-14T04:50:18.902Z,15.60
2023-03-14T04:51:18.867Z,16.90
2023-03-14T04:52:18.866Z,14.20
2023-03-14T04:53:18.851Z,14.80
2023-03-14T04:54:18.889Z,18.50
2023-03-14T04:55:18.863Z,18.00
2023-03-14T04:56:18.823Z,18.70
2023-03-14T04:57:18.804Z,17.30
2023-03-14T04:58:18.800Z,19.30
2023-03-14T04:59:18.785Z,17.50
2023-03-14T05:00:18.815Z,20.20
2023-03-14T05:01:18.797Z,18.60
2023-03-14T05:02:18.755Z,21.30
2023-03-14T05:03:18.781Z,19.50
2023-03-14T05:04:18.744Z,16.40
2023-03-14T05:05:18.752Z,17.30
2023-03-14T05:06:18.717Z,16.60
2023-03-14T05:07:18.698Z,17.10
2023-03-14T05:08:18.721Z,16.40
2023-03-14T05:09:18.677Z,16.60
2023-03-14T05:10:18.699Z,18.80
2023-03-14T05:11:18.697Z,19.30
2023-03-14T05:12:18.659Z,17.40
2023-03-14T05:13:18.634Z,16.30
2023-03-14T05:14:18.630Z,16.50
2023-03-14T05:15:18.635Z,18.70
2023-03-14T05:16:18.624Z,20.70
2023-03-14T05:17:18.585Z,17.60
2023-03-14T05:18:18.601Z,19.60
2023-03-14T05:19:18.571Z,17.30
2023-03-14T05:20:18.580Z,20.30
2023-03-14T05:21:18.557Z,23.60
2023-03-14T05:22:18.555Z,20.90
2023-03-14T05:23:18.526Z,20.10
2023-03-14T05:24:18.517Z,20.90
2023-03-14T05:25:18.522Z,18.00
2023-03-14T05:26:18.505Z,20.60
2023-03-14T05:27:18.491Z,19.20
2023-03-14T05:28:18.617Z,18.90
2023-03-14T05:29:18.469Z,15.70
2023-03-14T05:30:18.483Z,16.60
2023-03-14T05:31:18.489Z,13.30
2023-03-14T05:32:18.442Z,18.80
2023-03-14T05:33:18.411Z,21.90
2023-03-14T05:34:18.425Z,18.60
2023-03-14T05:35:18.412Z,20.80
2023-03-14T05:36:18.391Z,21.40
2023-03-14T05:37:20.024Z,17.10
2023-03-14T05:38:18.382Z,14.50
2023-03-14T05:39:18.356Z,17.50
2023-03-14T05:40:18.379Z,19.60
2023-03-14T05:41:18.334Z,16.50
2023-03-14T05:42:18.337Z,17.40
2023-03-14T05:43:18.321Z,18.90
2023-03-14T05:44:18.309Z,18.80
2023-03-14T05:45:18.308Z,17.10
2023-03-14T05:46:18.332Z,15.70
2023-03-14T05:47:18.282Z,20.00
2023-03-14T05:48:18.272Z,17.70
2023-03-14T05:49:18.252Z,15.00
2023-03-14T05:50:18.263Z,20.40
2023-03-14T05:51:18.245Z,17.70
2023-03-14T05:52:18.223Z,17.10
2023-03-14T05:53:18.216Z,16.60
2023-03-14T05:54:18.204Z,17.90
2023-03-14T05:55:18.202Z,19.60
2023-03-14T05:56:18.190Z,18.40
2023-03-14T05:57:18.122Z,17.30
2023-03-14T05:58:18.114Z,16.70
2023-03-14T05:59:18.092Z,17.50
2023-03-14T06:00:18.116Z,16.70
2023-03-14T06:01:18.072Z,18.40
2023-03-14T06:02:18.942Z,15.70
2023-03-14T06:03:18.144Z,18.90
2023-03-14T06:04:18.111Z,22.50
2023-03-14T06:05:18.100Z,42.90
2023-03-14T06:06:18.078Z,17.90
2023-03-14T06:07:18.015Z,14.70
2023-03-14T06:08:18.185Z,15.90
2023-03-14T06:09:18.051Z,18.90
2023-03-14T06:10:18.053Z,16.20
2023-03-14T06:11:18.030Z,19.40
2023-03-14T06:12:18.025Z,15.20
2023-03-14T06:13:18.005Z,18.50
2023-03-14T06:14:17.995Z,17.20
2023-03-14T06:15:17.936Z,16.90
2023-03-14T06:16:17.925Z,18.30
2023-03-14T06:17:17.907Z,16.20
2023-03-14T06:18:17.945Z,13.80
2023-03-14T06:19:17.895Z,18.20
2023-03-14T06:20:17.892Z,12.00
2023-03-14T06:21:19.313Z,16.60
2023-03-14T06:22:17.872Z,20.40
2023-03-14T06:23:17.890Z,21.90
2023-03-14T06:24:17.837Z,19.80
2023-03-14T06:25:17.838Z,18.40
2023-03-14T06:26:17.809Z,21.40
2023-03-14T06:27:17.817Z,18.20
2023-03-14T06:28:17.779Z,16.70
2023-03-14T06:29:17.770Z,15.10
2023-03-14T06:30:17.851Z,18.10
2023-03-14T06:31:17.794Z,19.80
2023-03-14T06:32:17.742Z,14.50
2023-03-14T06:33:17.734Z,15.00
2023-03-14T06:34:17.723Z,17.10
2023-03-14T06:35:17.733Z,17.40
2023-03-14T06:36:17.705Z,17.30
2023-03-14T06:37:19.897Z,17.20
2023-03-14T06:38:17.691Z,18.70
2023-03-14T06:39:17.677Z,17.90
2023-03-14T06:40:17.679Z,18.10
2023-03-14T06:41:17.661Z,14.10
2023-03-14T06:42:17.654Z,17.60
2023-03-14T06:43:17.677Z,13.50
2023-03-14T06:44:17.620Z,15.30
2023-03-14T06:45:17.641Z,16.10
2023-03-14T06:46:17.715Z,14.30
2023-03-14T06:47:17.588Z,10.80
2023-03-14T06:48:17.583Z,13.60
2023-03-14T06:49:17.570Z,13.70
2023-03-14T06:50:17.575Z,18.40
2023-03-14T06:51:17.551Z,13.70
2023-03-14T06:52:17.533Z,17.40
2023-03-14T06:53:17.526Z,14.40
2023-03-14T06:54:17.528Z,15.70
2023-03-14T06:55:17.535Z,11.00
2023-03-14T06:56:17.514Z,17.40
2023-03-14T06:57:17.485Z,15.80
2023-03-14T06:58:17.501Z,14.40
2023-03-14T06:59:17.465Z,16.80
2023-03-14T07:00:17.488Z,11.90
2023-03-14T07:01:17.469Z,15.30
2023-03-14T07:02:17.461Z,12.80
2023-03-14T07:03:17.418Z,12.60
2023-03-14T07:04:17.456Z,13.40
2023-03-14T07:05:17.426Z,12.40
2023-03-14T07:06:17.387Z,12.60
2023-03-14T07:07:17.377Z,13.30
2023-03-14T07:08:17.369Z,11.30
2023-03-14T07:09:17.359Z,15.00
2023-03-14T07:10:17.375Z,15.20
2023-03-14T07:11:17.329Z,15.50
2023-03-14T07:12:17.330Z,14.10
2023-03-14T07:13:17.315Z,13.60
2023-03-14T07:14:17.307Z,10.20
2023-03-14T07:15:19.377Z,14.60
2023-03-14T07:16:17.349Z,13.20
2023-03-14T07:17:17.273Z,11.10
2023-03-14T07:18:17.261Z,10.80
2023-03-14T07:19:17.249Z,10.20
2023-03-14T07:20:17.242Z,12.60
2023-03-14T07:21:17.242Z,10.70
2023-03-14T07:22:17.222Z,15.20
2023-03-14T07:23:17.205Z,9.80
2023-03-14T07:24:17.227Z,11.80
2023-03-14T07:25:17.199Z,13.40
2023-03-14T07:26:17.201Z,14.80
2023-03-14T07:27:17.164Z,10.70
2023-03-14T07:28:17.153Z,12.50
2023-03-14T07:29:17.144Z,9.70
2023-03-14T07:30:17.151Z,11.20
2023-03-14T07:31:17.183Z,11.80
2023-03-14T07:32:17.138Z,10.40
2023-03-14T07:33:17.098Z,11.60
2023-03-14T07:34:17.153Z,11.90
2023-03-14T07:35:17.081Z,11.70
2023-03-14T07:36:17.099Z,11.50
2023-03-14T07:37:17.064Z,9.80
2023-03-14T07:38:17.049Z,7.30
2023-03-14T07:39:17.042Z,8.50
2023-03-14T07:40:17.033Z,11.00
2023-03-14T07:41:17.045Z,12.10
2023-03-14T07:42:17.017Z,12.90
2023-03-14T07:43:16.995Z,13.50
2023-03-14T07:44:16.995Z,12.00
2023-03-14T07:45:18.244Z,11.10
2023-03-14T07:46:17.007Z,18.40
2023-03-14T07:47:16.958Z,11.20
2023-03-14T07:48:16.956Z,29.90
2023-03-14T07:49:16.944Z,12.40
2023-03-14T07:50:16.944Z,12.80
2023-03-14T07:51:16.939Z,13.50
2023-03-14T07:52:16.925Z,9.70
2023-03-14T07:53:16.904Z,10.30
2023-03-14T07:54:16.891Z,9.90
2023-03-14T07:55:16.872Z,9.60
2023-03-14T07:56:16.884Z,13.60
2023-03-14T07:57:16.851Z,8.80
2023-03-14T07:58:16.852Z,15.40
2023-03-14T07:59:16.850Z,10.90
2023-03-14T08:00:16.835Z,9.20
2023-03-14T08:01:16.831Z,12.10
2023-03-14T08:02:16.870Z,13.60
2023-03-14T08:03:16.800Z,12.30
2023-03-14T08:04:16.872Z,10.30
2023-03-14T08:05:16.766Z,12.00
2023-03-14T08:06:16.780Z,9.30
2023-03-14T08:07:16.744Z,13.30
2023-03-14T08:08:16.744Z,11.90
2023-03-14T08:09:16.724Z,10.60
2023-03-14T08:10:16.750Z,10.80
2023-03-14T08:11:16.722Z,10.90
2023-03-14T08:12:16.703Z,12.90
2023-03-14T08:13:16.675Z,9.80
2023-03-14T08:14:16.679Z,12.50
2023-03-14T08:15:16.662Z,10.40
2023-03-14T08:16:16.690Z,12.90
2023-03-14T08:17:16.639Z,13.30
2023-03-14T08:18:16.635Z,8.70
2023-03-14T08:19:17.450Z,7.70
2023-03-14T08:20:16.616Z,8.40
2023-03-14T08:21:16.623Z,8.90
2023-03-14T08:22:19.792Z,9.30
2023-03-14T08:23:16.578Z,10.50
2023-03-14T08:24:16.576Z,8.80
2023-03-14T08:25:16.599Z,8.30
2023-03-14T08:26:16.559Z,9.10
2023-03-14T08:27:16.551Z,9.50
2023-03-14T08:28:16.521Z,7.30
2023-03-14T08:29:16.544Z,10.80
2023-03-14T08:30:16.522Z,14.00
2023-03-14T08:31:16.606Z,9.50
2023-03-14T08:32:16.482Z,10.30
2023-03-14T08:33:16.478Z,8.80
2023-03-14T08:34:16.477Z,12.10
2023-03-14T08:35:16.459Z,6.10
2023-03-14T08:36:16.576Z,11.80
2023-03-14T08:37:26.167Z,8.60
2023-03-14T08:38:17.414Z,4.40
2023-03-14T08:39:16.529Z,9.00
2023-03-14T08:40:16.396Z,7.10
2023-03-14T08:41:16.405Z,5.30
2023-03-14T08:42:16.374Z,7.20
2023-03-14T08:43:16.379Z,7.70
2023-03-14T08:44:19.021Z,7.00
2023-03-14T08:45:16.346Z,5.50
2023-03-14T08:46:16.361Z,4.30
2023-03-14T08:47:16.414Z,8.60
2023-03-14T08:48:16.306Z,4.20
2023-03-14T08:49:16.362Z,6.80
2023-03-14T08:50:16.882Z,4.40
2023-03-14T08:51:16.302Z,4.40
2023-03-14T08:52:16.266Z,4.20
2023-03-14T08:53:16.277Z,3.90
2023-03-14T08:54:16.257Z,3.40
2023-03-14T08:55:16.251Z,4.10
2023-03-14T08:56:16.241Z,3.30
2023-03-14T08:57:16.218Z,5.20
2023-03-14T08:58:16.199Z,2.40
2023-03-14T08:59:16.206Z,2.90
2023-03-14T09:00:16.206Z,5.40
2023-03-14T09:01:16.258Z,3.80
2023-03-14T09:02:16.187Z,3.30
2023-03-14T09:03:16.235Z,3.10
2023-03-14T09:04:16.217Z,3.20
2023-03-14T09:05:16.143Z,3.90
2023-03-14T09:06:16.144Z,5.50
2023-03-14T09:07:16.122Z,2.50
2023-03-14T09:08:16.101Z,8.70
2023-03-14T09:09:16.092Z,2.30
2023-03-14T09:10:16.089Z,3.20
2023-03-14T09:11:16.083Z,6.50
2023-03-14T09:12:16.060Z,3.80
2023-03-14T09:13:16.055Z,4.60
2023-03-14T09:14:16.044Z,3.60
2023-03-14T09:15:16.027Z,2.70
2023-03-14T09:16:16.085Z,4.70
2023-03-14T09:17:16.008Z,5.70
2023-03-14T09:18:15.988Z,6.00
2023-03-14T09:19:15.989Z,3.40
2023-03-14T09:20:15.976Z,1.70
2023-03-14T09:21:16.006Z,5.60
2023-03-14T09:22:15.971Z,3.60
2023-03-14T09:23:15.940Z,3.90
2023-03-14T09:24:15.938Z,3.50
2023-03-14T09:25:15.921Z,3.10
2023-03-14T09:26:15.927Z,4.80
2023-03-14T09:27:15.950Z,4.90
2023-03-14T09:28:15.890Z,3.30
2023-03-14T09:29:15.944Z,3.90
2023-03-14T09:30:15.874Z,2.40
2023-03-14T09:31:15.892Z,5.80
2023-03-14T09:32:15.856Z,3.50
2023-03-14T09:33:15.846Z,4.50
2023-03-14T09:34:15.825Z,3.00
2023-03-14T09:35:15.846Z,4.10
2023-03-14T09:36:15.816Z,3.40
2023-03-14T09:37:15.796Z,5.50
2023-03-14T09:38:15.795Z,7.00
2023-03-14T09:39:15.777Z,4.20
2023-03-14T09:40:15.792Z,4.00
2023-03-14T09:41:15.776Z,4.60
2023-03-14T09:42:15.747Z,4.50
2023-03-14T09:43:15.737Z,4.90
2023-03-14T09:44:15.721Z,6.00
2023-03-14T09:45:15.704Z,6.70
2023-03-14T09:46:15.777Z,5.60
2023-03-14T09:47:15.705Z,9.10
2023-03-14T09:48:15.673Z,6.20
2023-03-14T09:49:15.674Z,6.90
2023-03-14T09:50:15.658Z,7.00
2023-03-14T09:51:15.644Z,11.90
2023-03-14T09:52:15.647Z,4.80
2023-03-14T09:53:15.623Z,6.00
2023-03-14T09:54:15.604Z,5.70
2023-03-14T09:55:15.595Z,7.80
2023-03-14T09:56:15.589Z,5.40
2023-03-14T09:57:15.596Z,5.90
2023-03-14T09:58:15.569Z,8.70
2023-03-14T09:59:15.561Z,7.00
2023-03-14T10:00:15.552Z,6.40
2023-03-14T10:01:15.569Z,3.80
2023-03-14T10:02:15.537Z,6.50
2023-03-14T10:03:15.516Z,4.50
2023-03-14T10:04:15.549Z,7.10
2023-03-14T10:05:15.491Z,8.60
2023-03-14T10:06:15.472Z,4.90
2023-03-14T10:07:15.485Z,6.20
2023-03-14T10:08:15.465Z,8.70
2023-03-14T10:09:15.450Z,21.50
2023-03-14T10:10:15.436Z,7.20
2023-03-14T10:11:15.435Z,4.40
2023-03-14T10:12:15.512Z,6.00
2023-03-14T10:13:15.404Z,5.40
2023-03-14T10:14:15.391Z,8.80
2023-03-14T10:15:15.387Z,7.80
2023-03-14T10:16:15.399Z,11.30
2023-03-14T10:17:15.384Z,8.60
2023-03-14T10:18:15.346Z,4.80
2023-03-14T10:19:15.348Z,7.30
2023-03-14T10:20:15.340Z,6.50
2023-03-14T10:21:15.320Z,8.40
2023-03-14T10:22:15.323Z,6.10
2023-03-14T10:23:15.300Z,5.80
2023-03-14T10:24:15.301Z,6.00
2023-03-14T10:25:15.281Z,6.80
2023-03-14T10:26:15.275Z,7.90
2023-03-14T10:27:15.272Z,6.20
2023-03-14T10:28:15.241Z,11.40
2023-03-14T10:29:15.235Z,7.80
2023-03-14T10:30:15.221Z,8.90
2023-03-14T10:31:15.232Z,7.80
2023-03-14T10:32:15.214Z,8.00
2023-03-14T10:33:15.195Z,9.20
2023-03-14T10:34:15.182Z,6.40
2023-03-14T10:35:15.185Z,9.70
2023-03-14T10:36:15.761Z,7.40
2023-03-14T10:37:15.180Z,8.90
2023-03-14T10:38:15.140Z,6.10
2023-03-14T10:39:15.139Z,4.70
2023-03-14T10:40:15.130Z,7.40
2023-03-14T10:41:15.111Z,7.10
2023-03-14T10:42:15.442Z,7.20
2023-03-14T10:43:15.099Z,7.50
2023-03-14T10:44:15.083Z,6.60
2023-03-14T10:45:15.544Z,4.30
2023-03-14T10:46:15.087Z,7.10
2023-03-14T10:47:15.116Z,11.50
2023-03-14T10:48:15.044Z,7.00
2023-03-14T10:49:15.037Z,5.00
2023-03-14T10:50:15.016Z,4.70
2023-03-14T10:51:15.088Z,7.20
2023-03-14T10:52:15.015Z,5.60
2023-03-14T10:53:14.997Z,6.20
2023-03-14T10:54:14.987Z,4.30
2023-03-14T10:55:14.985Z,6.30
2023-03-14T10:56:14.968Z,7.40
2023-03-14T10:57:14.973Z,7.50
2023-03-14T10:58:14.921Z,9.20
2023-03-14T10:59:14.929Z,6.00
2023-03-14T11:00:14.912Z,8.70
2023-03-14T11:01:14.927Z,5.00
2023-03-14T11:02:14.912Z,8.50
2023-03-14T11:03:14.890Z,11.00
2023-03-14T11:04:14.935Z,16.20
2023-03-14T11:05:14.865Z,13.70
2023-03-14T11:06:14.849Z,10.10
2023-03-14T11:07:14.861Z,8.10
2023-03-14T11:08:14.822Z,7.00
2023-03-14T11:09:14.822Z,5.20
2023-03-14T11:10:14.809Z,7.90
2023-03-14T11:11:14.798Z,11.30
2023-03-14T11:12:14.794Z,4.40
2023-03-14T11:13:14.777Z,7.90
2023-03-14T11:14:14.763Z,4.70
2023-03-14T11:15:14.775Z,5.50
2023-03-14T11:16:14.794Z,4.30
2023-03-14T11:17:14.769Z,3.30
2023-03-14T11:18:14.718Z,5.60
2023-03-14T11:19:14.732Z,5.00
2023-03-14T11:20:14.706Z,1.80
2023-03-14T11:21:14.702Z,6.40
2023-03-14T11:22:14.698Z,3.80
2023-03-14T11:23:14.672Z,3.80
2023-03-14T11:24:14.659Z,1.80
2023-03-14T11:25:14.657Z,2.90
2023-03-14T11:26:14.712Z,4.80
2023-03-14T11:27:14.660Z,5.40
2023-03-14T11:28:14.620Z,3.10
2023-03-14T11:29:14.614Z,4.60
2023-03-14T11:30:14.637Z,2.10
2023-03-14T11:31:14.632Z,1.30
2023-03-14T11:32:14.590Z,4.10
2023-03-14T11:33:14.572Z,4.90
2023-03-14T11:34:14.553Z,1.40
2023-03-14T11:35:14.543Z,5.20
2023-03-14T11:36:14.540Z,3.50
2023-03-14T11:37:14.543Z,3.00
2023-03-14T11:38:14.513Z,5.00
2023-03-14T11:39:14.507Z,2.30
2023-03-14T11:40:14.549Z,3.50
2023-03-14T11:41:14.487Z,3.30
2023-03-14T11:42:14.497Z,1.60
2023-03-14T11:43:14.468Z,1.90
2023-03-14T11:44:14.453Z,5.10
2023-03-14T11:45:14.438Z,5.40
2023-03-14T11:46:14.463Z,4.20
2023-03-14T11:47:14.420Z,1.30
2023-03-14T11:48:14.443Z,0.90
2023-03-14T11:49:14.403Z,6.80
2023-03-14T11:50:14.414Z,7.60
2023-03-14T11:51:14.381Z,3.50
2023-03-14T11:52:14.381Z,4.60
2023-03-14T11:53:14.373Z,9.20
2023-03-14T11:54:14.346Z,5.30
2023-03-14T11:55:14.343Z,8.70
2023-03-14T11:56:14.333Z,23.40
2023-03-14T11:57:14.323Z,34.90
2023-03-14T11:58:14.330Z,25.90
2023-03-14T11:59:14.296Z,22.50
2023-03-14T12:00:14.341Z,22.60
2023-03-14T12:01:14.269Z,20.00
2023-03-14T12:02:14.295Z,7.10
2023-03-14T12:03:14.271Z,11.90
2023-03-14T12:04:14.279Z,23.50
2023-03-14T12:05:14.240Z,7.90
2023-03-14T12:06:14.220Z,8.40
2023-03-14T12:07:14.210Z,11.10
2023-03-14T12:08:14.204Z,9.10
2023-03-14T12:09:14.193Z,3.80
2023-03-14T12:10:14.240Z,5.20
2023-03-14T12:11:14.165Z,6.10
2023-03-14T12:12:14.156Z,6.40
2023-03-14T12:13:14.165Z,2.40
2023-03-14T12:14:14.135Z,3.00
2023-03-14T12:15:14.177Z,7.30
2023-03-14T12:16:14.162Z,4.10
2023-03-14T12:17:14.126Z,5.80
2023-03-14T12:18:14.107Z,8.90
2023-03-14T12:19:14.088Z,5.40
2023-03-14T12:20:14.070Z,4.70
2023-03-14T12:21:14.086Z,7.80
2023-03-14T12:22:14.047Z,2.90
2023-03-14T12:23:14.065Z,0.70
2023-03-14T12:24:14.049Z,3.00
2023-03-14T12:25:14.037Z,2.30
2023-03-14T12:26:14.011Z,1.60
2023-03-14T12:27:13.999Z,1.80
2023-03-14T12:28:14.001Z,1.90
2023-03-14T12:29:13.990Z,3.30
2023-03-14T12:30:13.988Z,1.80
2023-03-14T12:31:14.056Z,1.80
2023-03-14T12:32:13.941Z,0.90
2023-03-14T12:33:13.972Z,0.70
2023-03-14T12:34:13.932Z,0.80
2023-03-14T12:35:13.917Z,0.70
2023-03-14T12:36:13.912Z,0.50
2023-03-14T12:37:13.893Z,0.80
2023-03-14T12:38:13.902Z,0.50
2023-03-14T12:39:13.878Z,0.80
2023-03-14T12:40:13.858Z,1.40
2023-03-14T12:41:13.858Z,0.60
2023-03-14T12:42:13.837Z,0.50
2023-03-14T12:43:13.865Z,1.40
2023-03-14T12:44:13.814Z,1.00
2023-03-14T12:45:13.805Z,1.10
2023-03-14T12:46:13.819Z,4.40
2023-03-14T12:47:13.797Z,3.10
2023-03-14T12:48:13.798Z,1.70
2023-03-14T12:49:13.764Z,2.80
2023-03-14T12:50:13.755Z,0.70
2023-03-14T12:51:13.748Z,0.90
2023-03-14T12:52:13.739Z,1.00
2023-03-14T12:53:13.737Z,0.60
2023-03-14T12:54:13.717Z,0.50
2023-03-14T12:55:13.708Z,0.40
2023-03-14T12:56:13.696Z,1.40
2023-03-14T12:57:13.737Z,1.00
2023-03-14T12:58:13.706Z,1.30
2023-03-14T12:59:13.660Z,1.00
2023-03-14T13:00:13.650Z,2.30
2023-03-14T13:01:13.734Z,0.80
2023-03-14T13:02:13.632Z,0.50
2023-03-14T13:03:13.631Z,0.90
2023-03-14T13:04:13.653Z,1.10
2023-03-14T13:05:13.597Z,1.10
2023-03-14T13:06:13.586Z,0.60